createdAt,value
2023-05-07T00:03:16.610Z,90.78
2023-05-07T00:06:43.911Z,90.63
2023-05-07T00:10:13.489Z,90.69
2023-05-07T00:13:40.942Z,90.55
2023-05-07T00:17:07.778Z,90.56
2023-05-07T00:20:36.193Z,90.48
2023-05-07T00:24:03.593Z,90.41
2023-05-07T00:27:30.567Z,90.42
2023-05-07T00:30:58.159Z,90.25
2023-05-07T00:34:25.530Z,90.11
2023-05-07T00:37:52.535Z,90.24
2023-05-07T00:41:19.451Z,90.22
2023-05-07T00:44:46.367Z,90.03
2023-05-07T00:48:13.475Z,89.87
2023-05-07T00:51:40.658Z,89.83
2023-05-07T00:55:09.966Z,89.84
2023-05-07T00:58:37.700Z,89.63
2023-05-07T01:02:04.936Z,89.40
2023-05-07T01:05:32.937Z,89.38
2023-05-07T01:09:00.986Z,89.24
2023-05-07T01:12:29.341Z,89.36
2023-05-07T01:15:56.473Z,89.00
2023-05-07T01:19:23.440Z,88.66
2023-05-07T01:22:51.558Z,88.92
2023-05-07T01:26:20.601Z,88.91
2023-05-07T01:29:48.112Z,88.91
2023-05-07T01:33:21.032Z,88.93
2023-05-07T01:36:49.142Z,89.20
2023-05-07T01:40:17.454Z,88.89
2023-05-07T01:43:45.508Z,89.35
2023-05-07T01:47:12.807Z,89.09
2023-05-07T01:50:40.995Z,89.18
2023-05-07T01:54:09.349Z,89.41
2023-05-07T01:57:36.585Z,89.65
2023-05-07T02:01:04.111Z,89.58
2023-05-07T02:04:31.534Z,89.49
2023-05-07T02:07:58.693Z,89.20
2023-05-07T02:11:28.055Z,89.74
2023-05-07T02:14:55.069Z,89.98
2023-05-07T02:18:22.024Z,90.46
2023-05-07T02:21:49.100Z,90.52
2023-05-07T02:25:16.287Z,90.69
2023-05-07T02:28:43.116Z,90.80
2023-05-07T02:32:11.224Z,91.18
2023-05-07T02:35:38.282Z,91.29
2023-05-07T02:39:05.690Z,91.92
2023-05-07T02:42:32.722Z,91.65
2023-05-07T02:46:06.785Z,91.19
2023-05-07T02:49:35.187Z,91.26
2023-05-07T02:53:02.398Z,91.04
2023-05-07T02:56:31.306Z,90.70
2023-05-07T03:00:00.068Z,90.42
2023-05-07T03:03:31.076Z,90.68
2023-05-07T03:06:58.007Z,90.97
2023-05-07T03:10:24.774Z,90.48
2023-05-07T03:13:51.723Z,90.61
2023-05-07T03:17:19.734Z,90.85
2023-05-07T03:20:46.615Z,91.04
2023-05-07T03:24:13.621Z,90.96
2023-05-07T03:27:40.902Z,91.09
2023-05-07T03:31:08.197Z,91.48
2023-05-07T03:34:35.350Z,91.13
2023-05-07T03:38:02.409Z,90.93
2023-05-07T03:41:30.939Z,90.96
2023-05-07T03:44:58.037Z,90.82
2023-05-07T03:48:25.120Z,90.60
2023-05-07T03:51:53.253Z,90.48
2023-05-07T03:55:20.637Z,90.38
2023-05-07T03:58:52.424Z,89.97
2023-05-07T04:02:19.556Z,89.44
2023-05-07T04:05:46.673Z,89.53
2023-05-07T04:09:14.686Z,89.32
2023-05-07T04:12:41.974Z,89.30
2023-05-07T04:16:10.397Z,89.16
2023-05-07T04:19:38.506Z,88.93
2023-05-07T04:23:05.860Z,88.86
2023-05-07T04:26:33.324Z,88.48
2023-05-07T04:30:01.907Z,88.55
2023-05-07T04:33:34.811Z,89.55
2023-05-07T04:37:02.875Z,88.68
2023-05-07T04:40:31.590Z,86.76
2023-05-07T04:44:00.039Z,85.08
2023-05-07T04:47:28.687Z,82.24
2023-05-07T04:50:56.026Z,80.81
2023-05-07T04:54:24.205Z,76.36
2023-05-07T04:57:51.574Z,75.74
2023-05-07T05:01:18.997Z,76.07
2023-05-07T05:04:46.474Z,76.40
2023-05-07T05:08:14.274Z,75.69
2023-05-07T05:11:42.593Z,77.53
2023-05-07T05:15:13.461Z,76.36
2023-05-07T05:18:43.784Z,76.58
2023-05-07T05:22:12.532Z,74.57
2023-05-07T05:25:40.400Z,71.64
2023-05-07T05:29:09.023Z,71.62
2023-05-07T05:32:38.398Z,70.95
2023-05-07T05:36:06.770Z,72.13
2023-05-07T05:39:34.148Z,72.38
2023-05-07T05:43:01.541Z,70.08
2023-05-07T05:46:28.956Z,69.34
2023-05-07T05:49:57.072Z,66.03
2023-05-07T05:53:24.234Z,66.82
2023-05-07T05:56:51.718Z,65.78
2023-05-07T06:00:23.420Z,65.43
2023-05-07T06:03:58.515Z,62.55
2023-05-07T06:07:25.564Z,61.41
2023-05-07T06:10:52.940Z,61.48
2023-05-07T06:14:20.038Z,61.07
2023-05-07T06:17:47.470Z,61.27
2023-05-07T06:21:15.675Z,62.69
2023-05-07T06:24:42.660Z,59.46
2023-05-07T06:28:12.424Z,59.13
2023-05-07T06:31:40.436Z,59.69
2023-05-07T06:35:09.426Z,58.66
2023-05-07T06:38:37.529Z,58.47
2023-05-07T06:42:05.653Z,59.03
2023-05-07T06:45:33.001Z,58.55
2023-05-07T06:49:00.674Z,58.58
2023-05-07T06:52:28.663Z,58.56
2023-05-07T06:55:56.597Z,58.12
2023-05-07T06:59:23.688Z,57.98
2023-05-07T07:02:51.467Z,57.23
2023-05-07T07:06:19.852Z,55.68
2023-05-07T07:09:47.242Z,55.86
2023-05-07T07:13:15.863Z,54.72
2023-05-07T07:16:43.078Z,56.28
2023-05-07T07:20:12.729Z,56.90
2023-05-07T07:23:41.776Z,56.91
2023-05-07T07:27:09.369Z,55.65
2023-05-07T07:30:37.005Z,56.57
2023-05-07T07:34:04.777Z,56.58
2023-05-07T07:37:33.136Z,56.67
2023-05-07T07:41:00.941Z,56.20
2023-05-07T07:44:29.665Z,55.05
2023-05-07T07:47:59.554Z,56.02
2023-05-07T07:51:28.080Z,56.23
2023-05-07T07:54:57.163Z,56.25
2023-05-07T07:58:25.999Z,57.01
2023-05-07T08:01:56.768Z,57.60
2023-05-07T08:05:24.928Z,58.13
2023-05-07T08:08:52.800Z,58.34
2023-05-07T08:12:21.180Z,58.17
2023-05-07T08:15:49.484Z,58.05
2023-05-07T08:19:17.528Z,58.46
2023-05-07T08:22:46.299Z,59.26
2023-05-07T08:26:14.366Z,59.37
2023-05-07T08:29:44.264Z,59.47
2023-05-07T08:33:16.037Z,59.83
2023-05-07T08:36:49.896Z,59.20
2023-05-07T08:40:22.904Z,59.73
2023-05-07T08:43:51.936Z,59.91
2023-05-07T08:47:22.032Z,59.80
2023-05-07T08:50:50.786Z,59.86
2023-05-07T08:54:21.036Z,59.26
2023-05-07T08:57:49.463Z,59.21
2023-05-07T09:01:18.864Z,59.89
2023-05-07T09:04:48.355Z,59.27
2023-05-07T09:08:18.516Z,59.45
2023-05-07T09:11:46.973Z,59.05
2023-05-07T09:15:15.682Z,59.07
2023-05-07T09:18:46.226Z,59.45
2023-05-07T09:22:14.599Z,58.53
2023-05-07T09:26:03.570Z,57.78
2023-05-07T09:29:36.459Z,57.66
2023-05-07T09:33:05.694Z,57.98
2023-05-07T09:36:33.740Z,57.59
2023-05-07T09:40:00.876Z,57.12
2023-05-07T09:43:28.369Z,56.10
2023-05-07T09:46:58.434Z,56.84
2023-05-07T09:50:34.887Z,56.54
2023-05-07T09:54:04.436Z,55.42
2023-05-07T09:57:33.135Z,55.09
2023-05-07T10:01:04.778Z,55.51
2023-05-07T10:04:33.028Z,55.91
2023-05-07T10:08:00.941Z,55.82
2023-05-07T10:11:29.962Z,56.11
2023-05-07T10:14:58.213Z,56.33
2023-05-07T10:18:30.637Z,56.63
2023-05-07T10:22:05.265Z,56.14
2023-05-07T10:25:34.785Z,55.60
2023-05-07T10:29:14.901Z,55.44
2023-05-07T10:32:47.849Z,56.08
2023-05-07T10:36:20.959Z,55.78
2023-05-07T10:39:48.450Z,55.77
2023-05-07T10:43:15.573Z,55.95
2023-05-07T10:47:07.411Z,55.43
2023-05-07T10:50:34.513Z,54.84
2023-05-07T10:54:23.633Z,55.35
2023-05-07T10:58:32.521Z,54.94
2023-05-07T11:02:46.302Z,55.53
2023-05-07T11:06:17.343Z,54.57
2023-05-07T11:10:09.511Z,55.61
2023-05-07T11:13:50.474Z,56.18
2023-05-07T11:17:56.297Z,56.07
2023-05-07T11:21:46.941Z,54.46
2023-05-07T11:25:22.442Z,54.66
2023-05-07T11:28:58.452Z,53.97
2023-05-07T11:32:30.849Z,53.98
2023-05-07T11:36:00.892Z,52.09
2023-05-07T11:39:35.531Z,52.14
2023-05-07T11:43:12.258Z,52.51
2023-05-07T11:46:39.640Z,51.90
2023-05-07T11:50:11.649Z,52.20
2023-05-07T11:53:42.927Z,51.90
2023-05-07T11:57:16.487Z,52.21
2023-05-07T12:00:52.196Z,52.31
2023-05-07T12:04:23.165Z,52.93
2023-05-07T12:07:50.725Z,52.70
2023-05-07T12:11:26.852Z,52.63
2023-05-07T12:14:54.513Z,51.26
2023-05-07T12:18:22.317Z,51.03
2023-05-07T12:21:49.491Z,51.17
2023-05-07T12:25:22.164Z,51.24
2023-05-07T12:28:49.763Z,50.45
2023-05-07T12:32:19.092Z,50.21
2023-05-07T12:35:46.660Z,50.97
2023-05-07T12:39:13.769Z,50.61
2023-05-07T12:42:42.340Z,51.63
2023-05-07T12:46:10.079Z,51.55
2023-05-07T12:49:39.841Z,50.77
2023-05-07T12:53:09.283Z,49.92
2023-05-07T12:56:40.159Z,50.23
2023-05-07T13:00:11.813Z,49.76
2023-05-07T13:03:40.746Z,50.35
2023-05-07T13:07:08.651Z,50.19
2023-05-07T13:10:36.488Z,51.13
2023-05-07T13:14:04.464Z,51.58
2023-05-07T13:17:32.670Z,52.08
2023-05-07T13:21:01.203Z,52.03
2023-05-07T13:24:29.223Z,51.82
2023-05-07T13:28:06.995Z,51.09
2023-05-07T13:31:38.845Z,50.78
2023-05-07T13:35:08.306Z,50.67
2023-05-07T13:38:37.393Z,49.73
2023-05-07T13:42:06.095Z,49.86
2023-05-07T13:45:33.546Z,50.54
2023-05-07T13:49:01.435Z,50.33
2023-05-07T13:52:30.126Z,50.19
2023-05-07T13:55:58.335Z,48.85
2023-05-07T13:59:26.240Z,48.53
2023-05-07T14:02:54.199Z,47.73
2023-05-07T14:06:21.195Z,47.77
2023-05-07T14:09:49.522Z,48.58
2023-05-07T14:13:16.524Z,48.59
2023-05-07T14:16:43.553Z,48.58
2023-05-07T14:20:12.802Z,48.27
2023-05-07T14:23:38.743Z,48.54
2023-05-07T14:27:06.746Z,47.69
2023-05-07T14:30:33.994Z,46.75
2023-05-07T14:34:01.053Z,46.81
2023-05-07T14:37:28.385Z,46.89
2023-05-07T14:40:57.081Z,45.18
2023-05-07T14:44:24.614Z,44.99
2023-05-07T14:47:52.957Z,45.95
2023-05-07T14:51:19.991Z,46.61
2023-05-07T14:54:46.840Z,46.42
2023-05-07T14:58:14.136Z,46.57
2023-05-07T15:01:46.415Z,46.18
2023-05-07T15:05:15.754Z,46.41
2023-05-07T15:08:42.840Z,47.30
2023-05-07T15:12:10.045Z,46.84
2023-05-07T15:15:38.077Z,46.66
2023-05-07T15:19:05.388Z,46.17
2023-05-07T15:22:33.498Z,45.86
2023-05-07T15:26:00.740Z,45.64
2023-05-07T15:29:28.010Z,46.15
2023-05-07T15:32:57.764Z,46.76
2023-05-07T15:36:25.221Z,46.28
2023-05-07T15:39:52.045Z,46.79
2023-05-07T15:43:19.335Z,47.37
2023-05-07T15:46:46.530Z,46.85
2023-05-07T15:50:14.451Z,47.09
2023-05-07T15:53:41.931Z,46.47
2023-05-07T15:57:09.088Z,46.73
2023-05-07T16:00:36.373Z,46.21
2023-05-07T16:04:03.739Z,46.58
2023-05-07T16:07:30.774Z,46.42
2023-05-07T16:10:57.612Z,46.80
2023-05-07T16:14:24.912Z,47.41
2023-05-07T16:17:57.798Z,47.69
2023-05-07T16:21:28.445Z,47.54
2023-05-07T16:24:55.610Z,46.85
2023-05-07T16:28:24.817Z,46.27
2023-05-07T16:31:54.620Z,46.43
2023-05-07T16:35:22.235Z,47.22
2023-05-07T16:38:49.502Z,47.36
2023-05-07T16:42:16.917Z,47.06
2023-05-07T16:45:44.139Z,47.09
2023-05-07T16:49:12.568Z,47.41
2023-05-07T16:52:41.423Z,47.77
2023-05-07T16:56:13.641Z,47.82
2023-05-07T16:59:42.512Z,48.20
2023-05-07T17:03:11.705Z,48.08
2023-05-07T17:06:39.307Z,48.36
2023-05-07T17:10:10.022Z,48.31
2023-05-07T17:13:39.779Z,48.30
2023-05-07T17:17:09.411Z,48.59
2023-05-07T17:20:40.662Z,48.51
2023-05-07T17:24:10.772Z,48.63
2023-05-07T17:27:38.321Z,48.99
2023-05-07T17:31:10.000Z,49.29
2023-05-07T17:34:40.991Z,49.53
2023-05-07T17:38:10.778Z,49.54
2023-05-07T17:41:43.403Z,49.70
2023-05-07T17:45:18.107Z,50.04
2023-05-07T17:48:45.612Z,50.09
2023-05-07T17:52:18.571Z,50.23
2023-05-07T17:55:49.076Z,50.71
2023-05-07T17:59:21.123Z,50.80
2023-05-07T18:02:59.386Z,50.99
2023-05-07T18:06:28.774Z,51.55
2023-05-07T18:09:59.398Z,51.63
2023-05-07T18:13:29.577Z,52.15
2023-05-07T18:16:57.100Z,52.42
2023-05-07T18:20:24.850Z,52.76
2023-05-07T18:23:53.394Z,53.09
2023-05-07T18:27:21.341Z,53.28
2023-05-07T18:30:48.755Z,53.67
2023-05-07T18:34:16.985Z,54.08
2023-05-07T18:37:44.444Z,54.15
2023-05-07T18:41:13.065Z,54.61
2023-05-07T18:44:41.133Z,54.72
2023-05-07T18:48:09.422Z,54.93
2023-05-07T18:51:37.563Z,55.48
2023-05-07T18:55:05.724Z,55.86
2023-05-07T18:58:34.724Z,56.08
2023-05-07T19:02:02.787Z,56.53
2023-05-07T19:05:30.871Z,56.77
2023-05-07T19:08:59.383Z,56.96
2023-05-07T19:12:26.743Z,57.26
2023-05-07T19:15:54.023Z,57.44
2023-05-07T19:19:22.232Z,57.69
2023-05-07T19:22:49.367Z,58.04
2023-05-07T19:26:16.332Z,58.27
2023-05-07T19:29:44.733Z,58.52
2023-05-07T19:33:12.417Z,58.76
2023-05-07T19:36:39.785Z,59.07
2023-05-07T19:40:08.918Z,59.29
2023-05-07T19:43:38.194Z,59.71
2023-05-07T19:47:05.965Z,59.94
2023-05-07T19:50:32.961Z,60.17
2023-05-07T19:54:00.206Z,60.51
2023-05-07T19:57:27.350Z,60.74
2023-05-07T20:00:54.168Z,61.13
2023-05-07T20:04:21.143Z,61.30
2023-05-07T20:07:48.037Z,61.92
2023-05-07T20:11:15.096Z,62.21
2023-05-07T20:14:42.062Z,62.35
2023-05-07T20:18:08.989Z,62.57
2023-05-07T20:21:36.165Z,62.99
2023-05-07T20:25:04.438Z,63.22
2023-05-07T20:28:31.333Z,63.56
2023-05-07T20:31:58.407Z,63.96
2023-05-07T20:35:25.615Z,64.18
2023-05-07T20:38:52.684Z,64.51
2023-05-07T20:42:19.959Z,64.78
2023-05-07T20:45:46.845Z,65.10
2023-05-07T20:49:13.992Z,65.21
2023-05-07T20:52:42.202Z,65.40
2023-05-07T20:56:09.091Z,65.66
2023-05-07T20:59:36.170Z,65.68
2023-05-07T21:03:03.132Z,66.16
2023-05-07T21:06:30.198Z,66.24
2023-05-07T21:09:57.108Z,66.57
2023-05-07T21:13:24.745Z,66.81
2023-05-07T21:16:51.815Z,66.72
2023-05-07T21:20:19.258Z,67.35
2023-05-07T21:23:46.311Z,67.39
2023-05-07T21:27:13.253Z,67.32
2023-05-07T21:30:40.456Z,67.80
